Pasadena, TX

6:32 PM CST en Febrero 28, 2015 (GMT -0600)
London | Change Station
CLOSE
Current Station
Estación meteorológica personal
Location: Pasadena, TX
Altura: 39 ft
Estaciones meteorológicas cercanas

Alt 39 ft 29.69 °N, 95.18 °W | Updated 12 minutes ago

Nublado
Nublado
54.9 ° F
Sensación térmica 54.9 ° F
N
4.7
Viento Variable Viento desde Este

Hoy
Alta -- | Baja -- ° F
--% Posibilidad de precipitaciones
Ayer
Alta -- | Baja -- ° F
Precip. -- pul
6:47 AM 6:19 PM
Gibosa creciente, 81% visible
Presión 30.22 pul
Visibilidad 7.0 Millas
Nubes Nublado 800 ft
Punto de rocío 50 ° F
Humedad 82%
Precipitaciones 0.00 pul
Espesor de la nieve No disponible.
UV 0 de una escala de 12
Polen 8.60 de una escala de 12
Calidad del aire No disponible.
Flu Activity No disponible.
SPECI KEFD 010015Z 07007KT 7SM OVC008 13/08 A3022

More Conditions Fewer Conditions

Presión 30.22 pul
Visibilidad 7.0 Millas
Nubes Nublado 800 ft
Punto de rocío 50 ° F
Humedad 82%
Precipitaciones 0.00 pul
Espesor de la nieve No disponible.
UV 0 de una escala de 12
Polen 8.60 de una escala de 12
Calidad del aire No disponible.
Flu Activity No disponible.
SPECI KEFD 010015Z 07007KT 7SM OVC008 13/08 A3022

More Conditions Fewer Conditions

10-Day Weather Forecast

Almanac

Astronomía

Feb. 28, 2015 Salida Puesta
Hora real
Crepúsculo civil
Crepúsculo náutico
Crepúsculo astronómico
Luna
Horas de luz
Horas de luz
Tomorrow will be .
, % of the Moon is Illuminated

Extremos de hoy

Máximos del estado Bajos del estado

Community

WunderPhotos

Upload Photos

1,801,191 ¡fotos cargadas!

WunderBlogs® & News

Nearby

Calidad del aire

  Calidad del aire Índice AQ Contaminante
Not available.

Grosos de nieve

Estación Profundido Altura

Actividad de terremotos

Ciudad Distance Mag. Tiempo y dato
Magnitud mínima muestra es 2,5.

Temperaturas de aguas costeras

Lugar Temperatura

Estaciones meteorológicas cercanas